Home > Products > Valid Products > TAF

000
FTUS41 KBTV 021300 AAA
TAFSLK
TAF AMD
KSLK 021300Z 0213/0312 24008KT P6SM BKN100
      TEMPO 0213/0216 BKN028
     FM022100 23012KT 5SM -TSRA BKN035CB
     FM030000 26008KT P6SM BKN035=



000
FTUS41 KBTV 021200 AAA
TAFMSS
TAF AMD
KMSS 021259Z 0213/0312 23012KT P6SM SCT040
      TEMPO 0213/0214 BKN018
     FM022000 23012KT 5SM -TSRA BKN035CB
     FM022300 25010KT P6SM SCT040=



000
FTUS41 KBTV 021100
TAFMPV
TAF
KMPV 021120Z 0212/0312 19012KT P6SM SCT040
     FM022300 19012KT 5SM -TSRA BKN035CB
     FM030200 25005KT P6SM BKN035=



000
FTUS41 KBTV 021100
TAFBTV
TAF
KBTV 021120Z 0212/0312 19012KT P6SM SCT040
     FM022200 19012KT 5SM -TSRA BKN035CB
     FM030100 26005KT P6SM BKN035=



000
FTUS41 KBTV 021100
TAFSLK
TAF
KSLK 021120Z 0212/0312 24008KT P6SM SCT050
     FM022100 23012KT 5SM -TSRA BKN035CB
     FM030000 26008KT P6SM BKN035=



000
FTUS41 KBTV 021100
TAFMSS
TAF
KMSS 021120Z 0212/0312 23012KT P6SM SCT040
     FM022000 23012KT 5SM -TSRA BKN035CB
     FM022300 25010KT P6SM SCT040=



000
FTUS41 KBTV 021000 CCA
TAFMPV
TAF COR
KMPV 021010Z 0210/0306 VRB03KT 2SM BR SCT002
      TEMPO 0210/0212 1SM BR BKN002
     FM021200 19012KT P6SM SCT040
     FM022300 19012KT 5SM -TSRA BKN035CB
     FM030200 25005KT P6SM BKN035=



000
FTUS41 KBTV 021000 AAB
TAFMPV
TAF AMD
KMPV 021005Z 0210/0306 VRB03KT 2SM BR SCT002
      TEMPO 0210/0212 1SM BR BKN002
     FM021700 19012KT P6SM SCT040
     FM022300 19012KT 5SM -TSRA BKN035CB
     FM030200 25005KT P6SM BKN035=



000
FTUS41 KBTV 020800 AAB
TAFSLK
TAF AMD
KSLK 020839Z 0209/0306 00000KT 5SM BR SCT050
      TEMPO 0209/0211 1SM BR SCT005 BKN050
     FM021300 24008KT P6SM VCSH BKN030
     FM022100 23012KT 5SM -TSRA BKN035CB
     FM030000 26008KT P6SM BKN035=



000
FTUS41 KBTV 020500 AAA
TAFSLK
TAF AMD
KSLK 020535Z 0206/0306 00000KT 5SM BR SCT050
      TEMPO 0206/0208 1SM BR SCT005 BKN050
     FM020800 00000KT 1SM BR BKN005
     FM021300 24008KT P6SM VCSH BKN030
     FM022100 23012KT 5SM -TSRA BKN035CB
     FM030000 26008KT P6SM BKN035=



000
FTUS41 KBTV 020500 AAA
TAFMPV
TAF AMD
KMPV 020534Z 0206/0306 VRB03KT P6SM FEW040
     FM020700 VRB03KT 1SM BR BKN005
     FM021200 19010KT P6SM SCT035
     FM021500 20010KT P6SM VCSH BKN035
     FM021700 19012KT P6SM SCT040
     FM022300 19012KT 5SM -TSRA BKN035CB
     FM030200 25005KT P6SM BKN035=



000
FTUS41 KBTV 020500 AAA
TAFBTV
TAF AMD
KBTV 020533Z 0206/0306 18006KT P6SM SCT060 BKN100
     FM021400 18010KT P6SM VCSH BKN040
     FM021600 19012KT P6SM SCT040
     FM022200 19012KT 5SM -TSRA BKN035CB
     FM030100 26005KT P6SM BKN035=



000
FTUS41 KBTV 020500
TAFBTV
TAF
KBTV 020522Z 0206/0306 18006KT P6SM SCT060 BKN100
     FM021400 18010KT P6SM VCSH BKN040
     FM021600 19012KT P6SM SCT040
     FM022200 19012KT 5SM -TSRA BKN035CB=



000
FTUS41 KBTV 020500
TAFSLK
TAF
KSLK 020522Z 0206/0306 00000KT 5SM BR SCT050
      TEMPO 0206/0208 1SM BR SCT005 BKN050
     FM020800 00000KT 1SM BR BKN005
     FM021300 24008KT P6SM VCSH BKN030
     FM022100 23012KT 5SM -TSRA BKN035CB=



000
FTUS41 KBTV 020500
TAFMPV
TAF
KMPV 020522Z 0206/0306 VRB03KT P6SM FEW040
     FM020700 VRB03KT 1SM BR BKN005
     FM021200 19010KT P6SM SCT035
     FM021500 20010KT P6SM VCSH BKN035
     FM021700 19012KT P6SM SCT040
     FM022300 19012KT 5SM -TSRA BKN035CB=



000
FTUS41 KBTV 020500
TAFMSS
TAF
KMSS 020522Z 0206/0306 21005KT P6SM SCT060 BKN100
     FM021200 23011G18KT P6SM VCSH BKN035
     FM021400 23012KT P6SM SCT040
     FM022000 23012KT 5SM -TSRA BKN035CB
     FM022300 25010KT P6SM SCT040=



000
FTUS41 KBTV 020200 AAA
TAFSLK
TAF AMD
KSLK 020208Z 0202/0224 00000KT 5SM BR SCT050
      TEMPO 0202/0206 1SM BR SCT005 BKN050
     FM020600 00000KT 1SM BR BKN005
     FM021300 24008KT P6SM SCT030 BKN050
     FM021600 24010G17KT P6SM VCSH BKN030=



000
FTUS41 KBTV 012300
TAFSLK
TAF
KSLK 012328Z 0200/0224 VRB03KT P6SM SCT050 BKN200
     FM020600 00000KT 1SM BR BKN005
     FM021300 24008KT P6SM SCT030 BKN050
     FM021600 24010G17KT P6SM VCSH BKN030=



000
FTUS41 KBTV 012300
TAFMSS
TAF
KMSS 012328Z 0200/0224 21003KT P6SM SCT080 BKN200
     FM020600 21005KT P6SM SCT060 BKN100
     FM021200 22009KT P6SM SCT035 BKN060
     FM021600 23011G18KT P6SM VCSH BKN035=



000
FTUS41 KBTV 012300
TAFBTV
TAF
KBTV 012328Z 0200/0224 18003KT P6SM FEW040
     FM020800 18006KT P6SM SCT060 BKN100
     FM021300 19010KT P6SM SCT040 SCT100
     FM021900 20010KT P6SM VCSH BKN040=



000
FTUS41 KBTV 012300
TAFMPV
TAF
KMPV 012328Z 0200/0224 VRB03KT P6SM FEW040
     FM020600 VRB03KT 1SM BR BKN005
     FM021300 19006KT P6SM SCT035 SCT100
     FM021900 23008KT P6SM VCSH BKN035=



000
FTUS41 KBTV 011700
TAFMSS
TAF
KMSS 011720Z 0118/0218 26007KT P6SM SCT035
      TEMPO 0118/0120 BKN035
     FM020000 21003KT P6SM SCT080 BKN200
     FM020600 21005KT P6SM SCT060 BKN100
     FM021200 22009KT P6SM SCT035 BKN060
     FM021600 23011G18KT P6SM VCSH BKN035=



000
FTUS41 KBTV 011700
TAFBTV
TAF
KBTV 011720Z 0118/0218 19006KT P6SM SCT035 SCT060
     FM020000 18003KT P6SM FEW040
     FM020800 18006KT P6SM SCT060 BKN100
     FM021300 19010KT P6SM SCT040 SCT100=



000
FTUS41 KBTV 011700
TAFSLK
TAF
KSLK 011720Z 0118/0218 23008KT P6SM SCT025 SCT040
      TEMPO 0118/0120 BKN040
     FM020000 VRB03KT P6SM BKN200
     FM020600 00000KT 1SM BR BKN005
     FM021300 24008KT P6SM SCT030 BKN050
     FM021700 24010G17KT P6SM VCSH BKN030=



000
FTUS41 KBTV 011700
TAFMPV
TAF
KMPV 011720Z 0118/0218 25007KT P6SM SCT035 SCT060
     FM020000 VRB03KT P6SM FEW035
     FM020600 VRB03KT 1SM BR BKN005
     FM021300 19006KT P6SM SCT035 SCT100=



000
FTUS41 KBTV 011400 AAB
TAFSLK
TAF AMD
KSLK 011433Z 0115/0212 23008KT P6SM SCT020 BKN035
      TEMPO 0115/0119 BKN020
     FM020000 VRB03KT P6SM BKN200
     FM020600 00000KT 1SM BR BKN005=



000
FTUS41 KBTV 011400 AAA
TAFMSS
TAF AMD
KMSS 011432Z 0115/0212 25006KT P6SM SCT020 BKN030
      TEMPO 0115/0118 BKN020
     FM020000 22006KT P6SM BKN200=



000
FTUS41 KBTV 011300 AAA
TAFSLK
TAF AMD
KSLK 011313Z 0113/0212 23008KT P6SM BKN020
     FM020000 VRB03KT P6SM BKN200
     FM020600 00000KT 1SM BR BKN005=



000
FTUS41 KBTV 011300 AAA
TAFMPV
TAF AMD
KMPV 011310Z 0113/0212 VRB03KT P6SM SCT030
     FM011500 25005KT P6SM BKN035
     FM020600 VRB03KT 1SM BR BKN005=



000
FTUS41 KBTV 011100
TAFBTV
TAF
KBTV 011137Z 0112/0212 21006KT P6SM BKN040
     FM011500 VRB04KT P6SM SCT040
     FM020600 18010KT P6SM BKN150=



000
FTUS41 KBTV 011100
TAFMSS
TAF
KMSS 011137Z 0112/0212 24006KT 6SM BR OVC005
     FM011400 24006KT P6SM BKN030
     FM020000 22006KT P6SM BKN200=



000
FTUS41 KBTV 011100
TAFSLK
TAF
KSLK 011137Z 0112/0212 00000KT 5SM BR OVC015
      TEMPO 0112/0114 2SM BR OVC005
     FM011400 23008KT P6SM BKN020
     FM020000 VRB03KT P6SM BKN200
     FM020600 00000KT 1SM BR BKN005=



000
FTUS41 KBTV 011100
TAFMPV
TAF
KMPV 011137Z 0112/0212 00000KT 3SM BR SCT001
      TEMPO 0112/0114 1/4SM FG VV001
     FM011500 25005KT P6SM BKN035
     FM020600 VRB03KT 1SM BR BKN005=



000
FTUS41 KBTV 011000 AAA
TAFBTV
TAF AMD
KBTV 011028Z 0110/0206 19005KT P6SM BKN040
      TEMPO 0110/0112 5SM BR
     FM011500 VRB03KT P6SM SCT030=



000
FTUS41 KBTV 010800 AAA
TAFSLK
TAF AMD
KSLK 010801Z 0108/0206 00000KT 3SM BR OVC010
      TEMPO 0108/0112 1/4SM FG VV001
     FM011300 23006KT P6SM BKN035=



000
FTUS41 KBTV 010800 AAA
TAFMSS
TAF AMD
KMSS 010800Z 0108/0206 22005KT 6SM BR BKN040
      TEMPO 0108/0112 1SM BR BKN004
     FM011200 22006KT P6SM SCT035=



000
FTUS41 KBTV 010700 AAB
TAFMPV
TAF AMD
KMPV 010755Z 0108/0206 00000KT 5SM BR SKC
      TEMPO 0108/0112 1/4SM FG VV001
     FM011300 26004KT P6SM BKN035=



000
FTUS41 KBTV 010600 AAA
TAFMPV
TAF AMD
KMPV 010659Z 0107/0206 00000KT 1/4SM FG VV001
     FM011300 26004KT P6SM BKN035=



000
FTUS41 KBTV 010500
TAFMPV
TAF
KMPV 010528Z 0106/0206 00000KT P6SM SCT035
      TEMPO 0106/0108 3/4SM BR SCT005
     FM010800 VRB03KT 1/4SM FG OVC001
     FM011300 26004KT P6SM BKN035=



000
FTUS41 KBTV 010500
TAFSLK
TAF
KSLK 010528Z 0106/0206 23004KT 6SM BR OVC020
      TEMPO 0106/0108 3SM BR OVC010
     FM010800 00000KT 1/4SM FG VV001
     FM011300 23006KT P6SM BKN035=



000
FTUS41 KBTV 010500
TAFBTV
TAF
KBTV 010528Z 0106/0206 19010KT P6SM SCT090
      TEMPO 0106/0107 -SHRA BKN040
     FM010800 19007KT P6SM SCT100
      TEMPO 0108/0112 5SM BR
     FM011400 VRB04KT P6SM SCT030=



000
FTUS41 KBTV 010500
TAFMSS
TAF
KMSS 010528Z 0106/0206 VRB04KT 6SM BR SCT030
      TEMPO 0106/0108 2SM BR OVC010
     FM010800 VRB03KT 1/2SM FG VV002
     FM011200 22006KT P6SM SCT035=



000
FTUS41 KBTV 010400 AAC
TAFMPV
TAF AMD
KMPV 010412Z 0104/0124 00000KT P6SM BKN150
      TEMPO 0104/0108 3/4SM BR SCT005
     FM010800 VRB03KT 3/4SM BR OVC005
     FM011300 26004KT P6SM BKN035=



000
FTUS41 KBTV 010300 AAB
TAFMPV
TAF AMD
KMPV 010359Z 0104/0124 00000KT 3/4SM BR SCT035 OVC150
      TEMPO 0104/0106 1/2SM FG BKN005
     FM010600 VRB03KT 3/4SM BR OVC005
     FM011300 26004KT P6SM BKN035=



000
FTUS41 KBTV 010300 AAA
TAFBTV
TAF AMD
KBTV 010358Z 0104/0124 19008KT P6SM BKN120
      TEMPO 0104/0108 -SHRA BKN030
     FM010800 20006KT 6SM BR OVC035
     FM011400 19006KT P6SM BKN035=



000
FTUS41 KBTV 010300 AAB
TAFMSS
TAF AMD
KMSS 010355Z 0104/0124 VRB03KT P6SM OVC030
      TEMPO 0104/0108 4SM BR OVC010
     FM010800 VRB03KT 3SM BR OVC008
     FM011200 22006KT P6SM SCT035=



000
FTUS41 KBTV 010300 AAA
TAFSLK
TAF AMD
KSLK 010353Z 0104/0124 23004KT 6SM BR OVC020
      TEMPO 0104/0106 3SM -SHRA BR BKN010
     FM011300 VRB03KT 6SM BR BKN015 BKN035
     FM011500 23006KT P6SM BKN035=



000
FTUS41 KBTV 010300 AAA
TAFMPV
TAF AMD
KMPV 010349Z 0104/0124 00000KT 5SM BR SCT200
      TEMPO 0104/0106 3/4SM BR BKN020
     FM010600 VRB03KT 3/4SM BR OVC005
     FM011300 26004KT P6SM BKN035=



000
FTUS41 KBTV 010200 AAA
TAFMSS
TAF AMD
KMSS 010212Z 0102/0124 24004KT P6SM VCSH SCT035 BKN045
      TEMPO 0102/0104 3SM -SHRA BR OVC030
     FM010400 23006KT 6SM BR SCT035 BKN200
     FM010800 23004KT 5SM BR SCT008 BKN035
     FM011300 22006KT P6SM SCT035=



000
FTUS41 KBTV 312300
TAFMPV
TAF
KMPV 312337Z 0100/0124 20004KT P6SM -SHRA OVC045
     FM010200 VRB03KT 6SM BR OVC045
     FM010600 VRB03KT 5SM BR OVC035
     FM011400 26004KT P6SM BKN035=



000
FTUS41 KBTV 312300
TAFBTV
TAF
KBTV 312337Z 0100/0124 19007KT P6SM BKN045 OVC070
     FM010600 20006KT 6SM BR OVC035
     FM011400 19006KT P6SM BKN035=



000
FTUS41 KBTV 312300
TAFMSS
TAF
KMSS 312337Z 0100/0124 22009KT P6SM VCSH SCT035 BKN200
      TEMPO 0100/0102 3SM -TSRA BR OVC035CB
     FM010400 23006KT 6SM BR SCT035 BKN200
     FM010800 23004KT 5SM BR SCT008 BKN035
     FM011300 22006KT P6SM SCT035=



000
FTUS41 KBTV 312300
TAFSLK
TAF
KSLK 312337Z 0100/0124 24004KT 6SM BR SCT018 OVC040
      TEMPO 0100/0104 5SM BR BKN018 OVC035
     FM010400 VRB03KT 3SM BR OVC018
     FM011300 VRB03KT 6SM BR BKN015 BKN035
     FM011500 23006KT P6SM BKN035=



000
FTUS41 KBTV 312200 AAB
TAFMSS
TAF AMD
KMSS 312204Z 3122/0118 21009KT P6SM VCSH SCT015 BKN200
     FM010000 23007KT P6SM VCSH BKN035 BKN200
     FM010400 23004KT 3SM BR OVC020
     FM010700 23003KT 1SM BR OVC008
     FM011300 22006KT P6SM SCT025=



000
FTUS41 KBTV 312100 AAA
TAFBTV
TAF AMD
KBTV 312117Z 3121/0118 19009KT P6SM -SHRA OVC045
     FM010000 18007KT P6SM OVC035
     FM010400 19004KT 4SM BR OVC020
     FM011300 19006KT P6SM SCT025=



000
FTUS41 KBTV 312100 AAA
TAFMPV
TAF AMD
KMPV 312115Z 3121/0118 VRB03KT P6SM -SHRA SCT035 OVC070
      TEMPO 3121/0101 6SM -SHRA OVC035
     FM010100 20005KT 6SM BR OVC035
     FM010300 21003KT 3SM BR OVC020
     FM010500 VRB02KT 3/4SM BR OVC008
     FM010700 VRB02KT 1/2SM FG VV001
     FM011330 VRB03KT 3SM BR BKN002
     FM011430 21005KT P6SM BKN020
     FM011600 21006KT P6SM SCT025=



000
FTUS41 KBTV 312100 AAA
TAFMSS
TAF AMD
KMSS 312111Z 3121/0118 22010KT P6SM VCSH BKN015 OVC020
      TEMPO 3121/3124 SCT015 OVC020
     FM010000 23007KT P6SM OVC030
     FM010400 23004KT 3SM BR OVC020
     FM010700 23003KT 1SM BR OVC008
     FM011300 22006KT P6SM SCT025=



000
FTUS41 KBTV 311700
TAFMPV
TAF
KMPV 311733Z 3118/0118 19010KT P6SM -SHRA OVC030
      TEMPO 3118/3122 3SM -SHRA BR BKN015
     FM010100 20005KT 6SM BR OVC025
     FM010300 21003KT 3SM BR OVC020
     FM010500 VRB02KT 3/4SM BR OVC008
     FM010700 VRB02KT 1/2SM FG VV001
     FM011330 VRB03KT 3SM BR BKN002
     FM011430 21005KT P6SM BKN020
     FM011600 21006KT P6SM SCT025=



000
FTUS41 KBTV 311700
TAFSLK
TAF
KSLK 311733Z 3118/0118 23010G17KT P6SM VCSH SCT018 OVC030
      TEMPO 3119/3122 3SM -SHRA BR BKN015
     FM010000 23005KT P6SM OVC025
     FM010500 VRB03KT 2SM BR OVC008
     FM010700 VRB02KT 1/2SM FG OVC001
     FM011330 22003KT 4SM BR BKN008
     FM011500 22006KT P6SM SCT020=



000
FTUS41 KBTV 311700
TAFMSS
TAF
KMSS 311733Z 3118/0118 22010G20KT P6SM VCSH SCT020 OVC030
      TEMPO 3118/3122 BKN020
     FM010000 23007KT P6SM OVC030
     FM010400 23004KT 3SM BR OVC020
     FM010700 23003KT 1SM BR OVC008
     FM011300 22006KT P6SM SCT025=



000
FTUS41 KBTV 311700
TAFBTV
TAF
KBTV 311733Z 3118/0118 18012G20KT P6SM VCSH SCT030 BKN045 OVC100
      TEMPO 3120/3123 3SM -SHRA BR BKN025
     FM010000 18007KT P6SM OVC030
     FM010400 19004KT 4SM BR OVC020
     FM011300 19006KT P6SM SCT025=



000
FTUS41 KBTV 311500 AAA
TAFMSS
TAF AMD
KMSS 311557Z 3116/0112 22010G20KT P6SM VCSH SCT020 OVC030
      TEMPO 3116/3120 BKN020
     FM010000 23008KT P6SM OVC030=



000
FTUS41 KBTV 311100
TAFBTV
TAF
KBTV 311139Z 3112/0112 18012G22KT P6SM VCSH OVC080
      TEMPO 3112/3116 5SM -SHRA BKN030
     FM311900 18012G24KT P6SM VCSH BKN035
     FM010000 18010KT P6SM OVC030=



000
FTUS41 KBTV 311100
TAFSLK
TAF
KSLK 311139Z 3112/0112 22010KT P6SM VCSH OVC030
      TEMPO 3112/3116 4SM -RA BR OVC020
     FM311600 23010G20KT P6SM VCSH BKN035
     FM010000 23010KT P6SM OVC025=



000
FTUS41 KBTV 311100
TAFMPV
TAF
KMPV 311139Z 3112/0112 14008KT P6SM VCSH BKN080
      TEMPO 3113/3117 5SM -SHRA BKN030
     FM312000 22010G20KT P6SM VCSH BKN030
     FM010100 22007KT P6SM OVC030=



000
FTUS41 KBTV 311100
TAFMSS
TAF
KMSS 311139Z 3112/0112 22010KT P6SM BKN120
     FM311500 22010G20KT P6SM BKN080
     FM010000 23008KT P6SM OVC030=



000
FTUS41 KBTV 310800 AAA
TAFBTV
TAF AMD
KBTV 310852Z 3109/0106 18012G25KT P6SM OVC100
      TEMPO 3109/3113 2SM SHRA BR OVC040
     FM311300 18012G24KT P6SM BKN040
     FM311900 18012G24KT P6SM VCSH BKN035
     FM010000 18010KT P6SM OVC030=



000
FTUS41 KBTV 310800 AAA
TAFSLK
TAF AMD
KSLK 310817Z 3108/0106 23010KT P6SM BKN100
      TEMPO 3108/3112 1SM TSRA BR BKN030CB
     FM311700 23010G20KT P6SM VCSH BKN035
     FM312300 23010KT P6SM OVC025=



000
FTUS41 KBTV 310500
TAFBTV
TAF
KBTV 310537Z 3106/0106 18012G25KT P6SM BKN120
      TEMPO 3110/3114 5SM -SHRA BKN040
     FM311400 18012G24KT P6SM BKN040
     FM311900 18012G24KT P6SM VCSH BKN035
     FM010000 18010KT P6SM OVC030=



000
FTUS41 KBTV 310500
TAFMSS
TAF
KMSS 310537Z 3106/0106 20010G20KT P6SM VCSH BKN080
      TEMPO 3106/3108 3SM TSRA BR OVC030CB
     FM310800 22010G20KT P6SM VCSH BKN050
     FM311800 22010G20KT P6SM BKN080=



000
FTUS41 KBTV 310500
TAFMPV
TAF
KMPV 310537Z 3106/0106 18008KT P6SM BKN100
      TEMPO 3111/3115 5SM -SHRA BKN040
     FM311500 22010G20KT P6SM BKN040
     FM312000 22010G20KT P6SM VCSH BKN030
     FM010100 22007KT P6SM OVC030=



000
FTUS41 KBTV 310500
TAFSLK
TAF
KSLK 310537Z 3106/0106 23010KT P6SM BKN100
      TEMPO 3108/3112 5SM -SHRA BKN040
     FM311700 23010G20KT P6SM VCSH BKN035
     FM312300 23010KT P6SM OVC025=



000
FTUS41 KBTV 310400 AAA
TAFMSS
TAF AMD
KMSS 310444Z 3105/3124 21009KT P6SM VCSH OVC080
      TEMPO 3105/3107 3SM TSRA BR BKN050CB
     FM310700 22008KT P6SM VCSH OVC050
     FM311500 22009KT 6SM -SHRA OVC035=



000
FTUS41 KBTV 302300
TAFMPV
TAF
KMPV 302332Z 3100/3124 19007KT P6SM BKN200
     FM310600 19007KT P6SM BKN110 BKN200
     FM311100 19006KT P6SM VCSH OVC050
     FM311400 20010G18KT 6SM -SHRA OVC035=



000
FTUS41 KBTV 302300
TAFMSS
TAF
KMSS 302332Z 3100/3124 21009KT P6SM BKN120 BKN200
     FM310500 21009KT P6SM VCSH OVC080
     FM310700 22008KT 6SM -SHRA OVC050
     FM311500 22009KT 6SM -SHRA OVC035=



000
FTUS41 KBTV 302300
TAFSLK
TAF
KSLK 302332Z 3100/3124 20010KT P6SM BKN200
     FM310600 22009KT P6SM OVC100
     FM310900 22009KT P6SM VCSH OVC080
     FM311400 23007KT 6SM -SHRA OVC030=



000
FTUS41 KBTV 302300
TAFBTV
TAF
KBTV 302332Z 3100/3124 18012G20KT P6SM SCT150 BKN200
     FM310600 18012G20KT P6SM OVC120
     FM310900 18012G18KT P6SM VCSH OVC050
     FM311400 19014G20KT 6SM -SHRA OVC035=



000
FTUS41 KBTV 301700
TAFMPV
TAF
KMPV 301727Z 3018/3118 19011G18KT P6SM SCT200
     FM310000 18008KT P6SM SCT150
     FM310800 19007KT P6SM BKN100
     FM311100 19006KT P6SM VCSH OVC050
     FM311400 19007KT 6SM -SHRA BR OVC030=



000
FTUS41 KBTV 301700
TAFSLK
TAF
KSLK 301727Z 3018/3118 20012G22KT P6SM BKN180
     FM302300 21010KT P6SM BKN150
     FM310200 22007KT P6SM BKN150
     FM310600 22006KT P6SM BKN100
     FM310800 22006KT P6SM VCSH OVC035
     FM311300 23007KT 4SM -SHRA BR BKN020=



000
FTUS41 KBTV 301700
TAFMSS
TAF
KMSS 301727Z 3018/3118 22010G18KT P6SM BKN150
     FM310300 22009KT P6SM BKN100
     FM310500 22008KT P6SM VCSH OVC050
     FM310900 22009KT 5SM -SHRA OVC030=



000
FTUS41 KBTV 301700
TAFBTV
TAF
KBTV 301727Z 3018/3118 19015G25KT P6SM BKN180
     FM310000 18012G20KT P6SM BKN180
     FM310600 18012KT P6SM BKN100
     FM311000 18010KT P6SM VCSH OVC050
     FM311400 19012G18KT 6SM -SHRA BR OVC030=



    US Dept of Commerce
    National Oceanic and Atmospheric Administration
    National Weather Service
    1325 East West Highway
    Silver Spring, MD 20910
    Page Author: NWS Internet Services Team
Disclaimer
Information Quality
Credits
Glossary
Privacy Policy
Freedom of Information Act (FOIA)
About Us
Career Opportunities